Time;durP1;ratioP1;P1;durP2;ratioP2;P2;SDS_P1;SDS_P2;PMS_P1;PMS_P2;Temp;Humidity;BMP_temperature;BMP_pressure;BME280_temperature;BME280_humidity;BME280_pressure;Samples;Min_cycle;Max_cycle;Signal;HPM_P1;HPM_P2
2023/01/11 00:01:39;;;;;;;1.97;1.50;;;1.90;99.90;;;;;;4893104;29;20616;-82
2023/01/11 00:04:06;;;;;;;2.40;1.60;;;1.90;99.90;;;;;;4892932;29;20915;-80
2023/01/11 00:06:33;;;;;;;4.00;1.90;;;2.00;99.90;;;;;;4893466;29;20496;-82
2023/01/11 00:09:00;;;;;;;5.50;2.13;;;2.00;99.90;;;;;;4894473;29;20877;-79
2023/01/11 00:11:27;;;;;;;3.90;1.80;;;2.00;99.90;;;;;;4897516;29;20456;-85
2023/01/11 00:13:53;;;;;;;3.03;1.80;;;2.00;99.90;;;;;;4897204;29;20557;-81
2023/01/11 00:16:20;;;;;;;2.37;1.93;;;2.10;99.90;;;;;;4896510;29;20577;-78
2023/01/11 00:18:48;;;;;;;2.53;1.80;;;2.10;99.90;;;;;;4897514;29;20483;-82
2023/01/11 00:21:15;;;;;;;2.73;2.00;;;2.20;99.90;;;;;;4896681;29;20958;-77
2023/01/11 00:23:42;;;;;;;1.93;1.53;;;2.30;99.90;;;;;;4897017;29;21059;-80
2023/01/11 00:26:12;;;;;;;3.13;1.90;;;2.30;99.90;;;;;;4896599;29;20459;-83
2023/01/11 00:28:39;;;;;;;2.40;1.60;;;2.30;99.90;;;;;;4896685;29;20460;-79
2023/01/11 00:31:06;;;;;;;3.23;1.73;;;2.20;99.90;;;;;;4896145;29;20472;-79
2023/01/11 00:33:32;;;;;;;4.73;1.57;;;2.20;99.90;;;;;;4896662;29;20507;-83
2023/01/11 00:36:01;;;;;;;2.30;1.40;;;2.00;99.90;;;;;;4896624;29;20528;-82
2023/01/11 00:49:27;;;;;;;1.37;1.23;;;1.80;99.90;;;;;;4896358;29;20464;-79
2023/01/11 00:51:55;;;;;;;2.43;2.10;;;1.80;99.90;;;;;;4896309;29;20531;-79
2023/01/11 00:54:22;;;;;;;2.10;1.90;;;1.80;99.90;;;;;;4896058;29;20864;-80
2023/01/11 00:56:49;;;;;;;2.70;1.63;;;2.00;99.90;;;;;;4897719;29;20525;-89
2023/01/11 00:59:16;;;;;;;3.37;2.00;;;2.70;99.90;;;;;;4896619;29;20465;-77
2023/01/11 01:01:43;;;;;;;5.83;2.00;;;1.80;99.90;;;;;;4896919;29;20451;-86
2023/01/11 01:04:09;;;;;;;2.17;1.40;;;1.80;99.90;;;;;;4895695;29;20505;-82
2023/01/11 01:06:36;;;;;;;3.60;1.60;;;1.70;99.90;;;;;;4897628;29;20556;-82
2023/01/11 01:09:04;;;;;;;2.17;1.50;;;1.80;99.90;;;;;;4897927;29;20473;-83
2023/01/11 01:11:31;;;;;;;1.87;1.30;;;1.80;99.90;;;;;;4899186;29;20453;-83
2023/01/11 01:16:42;;;;;;;1.50;1.20;;;2.00;99.90;;;;;;4896849;29;20443;-84
2023/01/11 01:19:09;;;;;;;2.57;1.50;;;2.10;99.90;;;;;;4896591;29;20459;-84
2023/01/11 01:21:36;;;;;;;1.83;1.60;;;2.10;99.90;;;;;;4895874;29;20481;-86
2023/01/11 01:24:05;;;;;;;1.67;1.13;;;2.00;99.90;;;;;;4896654;29;20468;-83
2023/01/11 01:26:32;;;;;;;1.97;1.77;;;2.20;99.90;;;;;;4896680;29;20971;-83
2023/01/11 01:28:59;;;;;;;1.23;1.13;;;2.20;99.90;;;;;;4896773;29;20460;-82
2023/01/11 01:31:25;;;;;;;2.23;1.90;;;2.30;99.90;;;;;;4896575;29;20593;-80
2023/01/11 01:33:52;;;;;;;3.53;1.20;;;2.40;99.90;;;;;;4895960;29;20453;-85
2023/01/11 01:36:19;;;;;;;4.57;1.47;;;2.40;99.90;;;;;;4896159;29;20500;-82
2023/01/11 01:38:46;;;;;;;1.60;1.23;;;2.50;99.90;;;;;;4895348;29;20984;-82
2023/01/11 01:41:15;;;;;;;1.20;1.00;;;2.60;99.90;;;;;;4896008;29;20486;-82
2023/01/11 01:43:50;;;;;;;1.60;1.27;;;2.60;99.90;;;;;;4896433;29;21132;-81
2023/01/11 01:46:18;;;;;;;1.30;1.03;;;2.70;99.90;;;;;;4896652;29;20508;-81
2023/01/11 01:48:51;;;;;;;1.27;1.10;;;2.60;99.90;;;;;;4895683;29;20985;-84
2023/01/11 01:51:22;;;;;;;1.20;0.90;;;2.70;99.90;;;;;;4896298;29;20972;-81
2023/01/11 01:53:53;;;;;;;1.00;0.90;;;2.70;99.90;;;;;;4895803;29;20473;-83
2023/01/11 01:56:28;;;;;;;1.00;0.90;;;2.80;99.90;;;;;;4899690;29;20471;-82
2023/01/11 01:58:58;;;;;;;1.83;1.17;;;2.70;99.90;;;;;;4899961;29;20463;-83
2023/01/11 02:04:14;;;;;;;1.10;1.00;;;2.40;99.90;;;;;;4895893;29;20429;-80
2023/01/11 02:06:42;;;;;;;0.90;0.70;;;2.40;99.90;;;;;;4895539;29;20472;-84
2023/01/11 02:09:19;;;;;;;0.87;0.80;;;2.40;99.90;;;;;;4897991;29;20476;-78
2023/01/11 02:11:47;;;;;;;3.03;1.47;;;2.60;99.90;;;;;;4896283;29;20458;-80
2023/01/11 02:14:17;;;;;;;1.37;1.07;;;2.40;99.90;;;;;;4896119;29;20492;-83
2023/01/11 02:16:43;;;;;;;2.70;1.27;;;2.50;99.90;;;;;;4896225;29;20453;-81
2023/01/11 02:19:16;;;;;;;1.30;1.20;;;2.40;99.90;;;;;;4895271;29;20467;-85
2023/01/11 02:21:59;;;;;;;1.73;1.10;;;2.50;99.90;;;;;;4896885;29;20544;-81
2023/01/11 02:24:41;;;;;;;1.00;0.90;;;2.30;99.90;;;;;;4897201;29;20456;-81
2023/01/11 02:27:23;;;;;;;1.33;0.90;;;2.30;99.90;;;;;;4881128;29;20541;-80
2023/01/11 02:30:05;;;;;;;1.20;1.00;;;2.30;99.90;;;;;;4883524;29;20460;-81
2023/01/11 02:32:37;;;;;;;2.50;1.10;;;2.30;99.90;;;;;;4880546;29;20439;-80
2023/01/11 02:35:16;;;;;;;3.33;1.00;;;2.30;99.90;;;;;;4877800;29;20581;-85
2023/01/11 02:37:52;;;;;;;1.40;0.90;;;2.30;99.90;;;;;;4876508;29;20997;-81
2023/01/11 02:40:27;;;;;;;0.97;0.83;;;2.30;99.90;;;;;;4875918;29;20465;-78
2023/01/11 02:45:52;;;;;;;1.00;0.80;;;2.30;99.90;;;;;;4894245;29;20466;-81
2023/01/11 02:48:26;;;;;;;1.33;1.10;;;2.40;99.90;;;;;;4894287;29;20461;-77
2023/01/11 02:51:01;;;;;;;1.50;1.10;;;2.40;99.90;;;;;;4894493;29;20838;-78
2023/01/11 02:53:31;;;;;;;2.50;1.20;;;2.40;99.90;;;;;;4894020;29;20831;-78
2023/01/11 02:56:01;;;;;;;1.63;1.30;;;2.50;99.90;;;;;;4893514;29;20501;-78
2023/01/11 02:58:31;;;;;;;1.10;1.00;;;2.50;99.90;;;;;;4892871;29;20481;-79
2023/01/11 03:01:00;;;;;;;1.70;1.17;;;2.50;99.90;;;;;;4893855;29;20449;-78
2023/01/11 03:03:28;;;;;;;2.83;1.50;;;2.50;99.90;;;;;;4893564;29;20466;-77
2023/01/11 03:05:59;;;;;;;1.30;1.20;;;2.60;99.90;;;;;;4893707;29;20465;-78
2023/01/11 03:08:44;;;;;;;1.20;1.10;;;2.60;99.90;;;;;;4893666;29;20469;-78
2023/01/11 03:12:50;;;;;;;1.67;1.03;;;2.60;99.90;;;;;;4893263;29;20865;-78
2023/01/11 03:14:13;;;;;;;1.33;1.00;;;2.60;99.90;;;;;;4892493;29;20469;-77
2023/01/11 03:16:49;;;;;;;1.47;0.90;;;2.70;99.90;;;;;;4893299;29;20851;-78
2023/01/11 03:19:25;;;;;;;1.10;0.90;;;2.90;99.90;;;;;;4894375;29;20458;-78
2023/01/11 03:22:01;;;;;;;2.00;0.90;;;2.90;99.90;;;;;;4896624;29;20954;-78
2023/01/11 03:24:32;;;;;;;1.10;1.00;;;3.00;99.90;;;;;;4894157;29;20429;-78
2023/01/11 03:27:10;;;;;;;1.00;0.90;;;3.00;99.90;;;;;;4893361;29;20488;-78
2023/01/11 03:29:45;;;;;;;1.00;0.83;;;3.00;99.90;;;;;;4893729;29;20449;-78
2023/01/11 03:32:23;;;;;;;0.90;0.80;;;3.10;99.90;;;;;;4902018;29;21216;-81
2023/01/11 03:35:00;;;;;;;1.10;0.90;;;3.20;99.90;;;;;;4905725;29;20477;-81
2023/01/11 03:37:33;;;;;;;1.10;1.00;;;3.30;99.90;;;;;;4905145;29;20571;-84
2023/01/11 03:40:08;;;;;;;0.80;0.73;;;3.30;99.90;;;;;;4903587;29;20446;-82
2023/01/11 03:43:09;;;;;;;1.20;0.90;;;3.40;99.90;;;;;;4895642;29;20963;-84
2023/01/11 03:45:27;;;;;;;0.83;0.70;;;3.30;99.90;;;;;;4893274;29;20485;-82
2023/01/11 03:47:58;;;;;;;1.47;1.03;;;3.40;99.90;;;;;;4892907;29;20602;-78
2023/01/11 03:50:27;;;;;;;0.90;0.70;;;3.40;99.90;;;;;;4893843;29;20456;-82
2023/01/11 03:52:55;;;;;;;2.53;0.80;;;3.50;99.90;;;;;;4892519;29;20448;-78
2023/01/11 03:55:28;;;;;;;0.90;0.80;;;3.50;99.90;;;;;;4892738;29;20945;-77
2023/01/11 03:57:56;;;;;;;1.17;0.80;;;3.60;99.90;;;;;;4894188;29;20466;-78
2023/01/11 04:00:24;;;;;;;1.47;0.93;;;3.30;99.90;;;;;;4893987;29;20461;-77
2023/01/11 04:02:52;;;;;;;0.93;0.83;;;3.30;99.90;;;;;;4893758;29;20467;-80
2023/01/11 04:05:21;;;;;;;1.30;1.10;;;3.40;99.90;;;;;;4892739;29;20454;-81
2023/01/11 04:07:47;;;;;;;0.80;0.60;;;3.40;99.90;;;;;;4893643;29;20471;-79
2023/01/11 04:10:14;;;;;;;1.20;0.90;;;3.50;99.90;;;;;;4893969;29;20460;-85
2023/01/11 04:12:41;;;;;;;0.80;0.73;;;3.40;99.90;;;;;;4894297;29;21009;-84
2023/01/11 04:15:09;;;;;;;1.10;0.87;;;3.40;99.90;;;;;;4895192;29;20588;-86
2023/01/11 04:17:36;;;;;;;0.93;0.83;;;3.50;99.90;;;;;;4896310;29;20457;-83
2023/01/11 04:20:03;;;;;;;0.80;0.80;;;3.60;99.90;;;;;;4897176;29;20542;-80
2023/01/11 04:22:31;;;;;;;1.23;0.87;;;3.60;99.90;;;;;;4897759;29;20456;-82
2023/01/11 04:24:58;;;;;;;1.00;0.90;;;3.50;99.90;;;;;;4895593;29;20477;-79
2023/01/11 04:27:25;;;;;;;0.87;0.80;;;3.50;99.90;;;;;;4893186;29;20544;-79
2023/01/11 04:29:51;;;;;;;1.10;0.70;;;3.50;99.90;;;;;;4893548;29;20489;-80
2023/01/11 04:32:18;;;;;;;1.00;0.90;;;3.50;99.90;;;;;;4892554;29;20450;-80
2023/01/11 04:34:45;;;;;;;1.00;0.87;;;3.50;99.90;;;;;;4893204;29;20493;-80
2023/01/11 04:37:12;;;;;;;1.20;0.97;;;3.60;99.90;;;;;;4894397;29;20461;-76
2023/01/11 04:39:40;;;;;;;1.33;1.20;;;3.60;99.90;;;;;;4892752;29;20466;-79
2023/01/11 04:42:18;;;;;;;1.90;0.90;;;3.50;99.90;;;;;;4895981;29;20556;-87
2023/01/11 04:44:46;;;;;;;1.00;0.90;;;3.50;99.90;;;;;;4896075;29;20521;-82
2023/01/11 04:47:13;;;;;;;4.00;0.90;;;3.60;99.90;;;;;;4896252;29;20450;-77
2023/01/11 04:49:40;;;;;;;1.10;1.00;;;3.60;99.90;;;;;;4894610;29;20474;-82
2023/01/11 04:52:07;;;;;;;1.20;1.10;;;3.60;99.90;;;;;;4894261;29;20452;-83
2023/01/11 04:54:34;;;;;;;2.30;2.10;;;3.60;99.90;;;;;;4893579;29;20457;-79
2023/01/11 04:57:02;;;;;;;2.30;1.03;;;3.60;99.90;;;;;;4895628;29;20511;-81
2023/01/11 04:59:29;;;;;;;1.23;1.13;;;3.50;99.90;;;;;;4896269;29;20452;-79
2023/01/11 05:01:56;;;;;;;1.43;1.00;;;3.50;99.90;;;;;;4893388;29;20465;-86
2023/01/11 05:04:23;;;;;;;1.00;0.90;;;3.60;99.90;;;;;;4896110;29;20460;-79
2023/01/11 05:06:49;;;;;;;1.37;1.27;;;3.60;99.90;;;;;;4895988;29;20456;-78
2023/01/11 05:09:17;;;;;;;1.57;0.80;;;3.60;99.90;;;;;;4896000;29;20458;-80
2023/01/11 05:11:45;;;;;;;2.37;1.00;;;3.70;99.90;;;;;;4894480;29;20473;-80
2023/01/11 05:14:14;;;;;;;0.90;0.80;;;3.70;99.90;;;;;;4895977;29;20810;-81
2023/01/11 05:16:41;;;;;;;1.00;0.90;;;3.70;99.90;;;;;;4895765;29;20485;-80
2023/01/11 05:19:09;;;;;;;1.10;1.00;;;3.80;99.90;;;;;;4895770;29;20453;-78
2023/01/11 05:21:39;;;;;;;1.70;0.90;;;3.90;99.90;;;;;;4895498;29;20464;-84
2023/01/11 05:24:08;;;;;;;2.17;1.00;;;4.00;99.90;;;;;;4895268;29;20526;-84
2023/01/11 05:26:37;;;;;;;1.30;1.10;;;4.00;99.90;;;;;;4894829;29;20461;-77
2023/01/11 05:29:05;;;;;;;1.70;0.80;;;4.10;99.90;;;;;;4894220;29;20462;-80
2023/01/11 05:31:34;;;;;;;3.03;0.90;;;4.10;99.90;;;;;;4895325;29;20453;-79
2023/01/11 05:34:01;;;;;;;1.13;1.00;;;4.10;99.90;;;;;;4894950;29;20464;-79
2023/01/11 05:36:28;;;;;;;1.50;1.00;;;4.10;99.90;;;;;;4895453;29;20541;-80
2023/01/11 05:38:56;;;;;;;2.77;1.00;;;4.20;99.90;;;;;;4895649;29;20449;-85
2023/01/11 05:41:26;;;;;;;0.93;0.80;;;4.10;99.90;;;;;;4886376;29;20977;-80
2023/01/11 05:46:42;;;;;;;2.10;1.30;;;4.30;99.90;;;;;;4895331;29;20530;-80
2023/01/11 05:49:10;;;;;;;3.20;0.80;;;4.20;99.90;;;;;;4895077;29;20478;-81
2023/01/11 05:51:37;;;;;;;2.73;1.00;;;4.30;99.90;;;;;;4894822;29;20968;-79
2023/01/11 05:54:07;;;;;;;1.20;1.00;;;4.30;99.90;;;;;;4894771;29;20450;-78
2023/01/11 05:56:34;;;;;;;2.10;1.00;;;4.40;99.90;;;;;;4894844;29;20497;-80
2023/01/11 05:59:02;;;;;;;1.20;1.10;;;4.30;99.90;;;;;;4887501;29;20474;-79
2023/01/11 06:01:29;;;;;;;1.30;1.00;;;4.40;99.90;;;;;;4891875;29;20529;-83
2023/01/11 06:03:57;;;;;;;1.30;0.90;;;4.40;99.90;;;;;;4893209;29;20536;-84
2023/01/11 06:06:24;;;;;;;1.43;1.10;;;4.50;99.90;;;;;;4891561;29;20482;-80
2023/01/11 06:08:51;;;;;;;3.53;0.90;;;4.50;99.90;;;;;;4892113;29;20458;-75
2023/01/11 06:11:18;;;;;;;1.57;0.97;;;4.60;99.90;;;;;;4894146;29;20461;-77
2023/01/11 06:13:45;;;;;;;1.23;1.10;;;4.60;99.90;;;;;;4888183;29;20470;-78
2023/01/11 06:16:14;;;;;;;0.83;0.83;;;4.60;99.90;;;;;;4892641;29;20585;-74
2023/01/11 06:18:42;;;;;;;2.10;1.10;;;4.70;99.90;;;;;;4884266;29;20975;-76
2023/01/11 06:21:12;;;;;;;1.20;1.10;;;4.60;99.90;;;;;;4885746;29;20506;-91
2023/01/11 06:23:41;;;;;;;1.30;1.20;;;4.30;99.90;;;;;;4893280;29;20453;-87
2023/01/11 06:26:09;;;;;;;1.47;1.13;;;4.20;99.90;;;;;;4894402;29;20449;-87
2023/01/11 06:28:37;;;;;;;1.67;1.20;;;4.40;99.90;;;;;;4893436;29;20474;-80
2023/01/11 06:31:05;;;;;;;2.97;1.40;;;4.00;99.90;;;;;;4884949;29;20483;-79
2023/01/11 06:33:32;;;;;;;1.37;1.20;;;4.30;99.90;;;;;;4888144;29;20986;-79
2023/01/11 06:36:03;;;;;;;1.17;1.07;;;4.30;99.90;;;;;;4894311;29;20525;-82
2023/01/11 06:38:31;;;;;;;2.33;1.40;;;4.30;99.90;;;;;;4898919;29;20828;-82
2023/01/11 06:41:00;;;;;;;1.20;1.00;;;4.30;99.90;;;;;;4897859;29;20464;-84
2023/01/11 06:43:27;;;;;;;1.20;1.00;;;4.50;99.90;;;;;;4897322;29;20486;-78
2023/01/11 06:45:54;;;;;;;1.70;1.20;;;4.50;99.90;;;;;;4903401;29;21028;-78
2023/01/11 06:48:24;;;;;;;1.90;1.00;;;4.60;99.90;;;;;;4894460;29;20571;-78
2023/01/11 06:50:53;;;;;;;1.97;1.10;;;4.60;99.90;;;;;;4894301;29;20485;-80
2023/01/11 06:53:20;;;;;;;3.20;0.90;;;4.50;99.90;;;;;;4895313;29;20453;-81
2023/01/11 06:55:53;;;;;;;1.43;1.30;;;4.50;99.90;;;;;;4892947;29;20604;-79
2023/01/11 06:58:22;;;;;;;2.30;1.00;;;4.50;99.90;;;;;;4893934;29;20449;-78
2023/01/11 07:00:49;;;;;;;1.23;1.10;;;4.60;99.90;;;;;;4893908;29;20458;-80
2023/01/11 07:03:15;;;;;;;1.10;1.00;;;4.60;99.90;;;;;;4898058;29;20949;-73
2023/01/11 07:05:44;;;;;;;1.17;1.07;;;4.70;99.90;;;;;;4897005;29;20474;-86
2023/01/11 07:08:11;;;;;;;1.03;0.93;;;4.80;99.90;;;;;;4896572;29;20477;-84
2023/01/11 07:10:38;;;;;;;2.00;1.10;;;4.80;99.90;;;;;;4893599;29;20470;-85
2023/01/11 07:13:06;;;;;;;1.30;1.20;;;4.70;99.90;;;;;;4894665;29;20456;-81
2023/01/11 07:15:33;;;;;;;1.20;0.90;;;4.80;99.90;;;;;;4883374;29;20549;-87
2023/01/11 07:18:00;;;;;;;3.00;1.13;;;4.80;99.90;;;;;;4874747;29;20476;-80
2023/01/11 07:20:27;;;;;;;1.20;1.00;;;4.80;99.90;;;;;;4875164;29;20467;-79
2023/01/11 07:22:57;;;;;;;2.17;1.10;;;4.80;99.90;;;;;;4874609;29;20473;-79
2023/01/11 07:25:24;;;;;;;1.77;1.43;;;4.90;99.90;;;;;;4875301;29;20827;-79
2023/01/11 07:27:55;;;;;;;1.57;1.10;;;5.00;99.90;;;;;;4875248;29;20447;-84
2023/01/11 07:30:24;;;;;;;1.30;1.00;;;5.00;99.90;;;;;;4893552;29;20452;-80
2023/01/11 07:32:50;;;;;;;1.23;1.00;;;4.90;99.90;;;;;;4893354;29;20540;-79
2023/01/11 07:35:17;;;;;;;1.13;1.03;;;4.80;99.90;;;;;;4894404;29;20457;-80
2023/01/11 07:37:45;;;;;;;1.57;1.03;;;4.90;99.90;;;;;;4893439;29;20493;-79
2023/01/11 07:40:15;;;;;;;2.40;0.90;;;4.90;99.90;;;;;;4893093;29;20469;-78
2023/01/11 07:45:32;;;;;;;2.90;1.20;;;5.10;99.90;;;;;;4892219;29;20524;-78
2023/01/11 07:47:58;;;;;;;1.43;0.93;;;5.10;99.90;;;;;;4893176;29;20481;-77
2023/01/11 07:50:25;;;;;;;1.50;1.07;;;5.10;99.90;;;;;;4893135;29;20466;-79
2023/01/11 07:52:52;;;;;;;1.40;1.13;;;5.10;99.90;;;;;;4893112;29;20830;-81
2023/01/11 07:55:21;;;;;;;1.97;1.20;;;5.20;99.90;;;;;;4892835;29;20850;-80
2023/01/11 07:57:47;;;;;;;1.17;1.07;;;5.20;99.90;;;;;;4893039;29;20561;-80
2023/01/11 08:00:15;;;;;;;1.83;1.10;;;5.20;99.90;;;;;;4892945;29;21033;-81
2023/01/11 08:02:44;;;;;;;1.30;0.87;;;5.20;99.90;;;;;;4893323;29;20458;-79
2023/01/11 08:05:10;;;;;;;3.10;1.10;;;5.20;99.90;;;;;;4892064;29;21025;-83
2023/01/11 08:07:37;;;;;;;2.83;1.20;;;5.20;99.90;;;;;;4892771;29;21010;-80
2023/01/11 08:10:05;;;;;;;1.20;1.10;;;5.20;99.90;;;;;;4894087;29;20560;-78
2023/01/11 08:15:16;;;;;;;2.50;1.60;;;5.10;99.90;;;;;;4892745;29;20501;-79
2023/01/11 08:17:44;;;;;;;1.73;1.13;;;5.10;99.90;;;;;;4892977;29;20494;-83
2023/01/11 08:20:11;;;;;;;1.80;1.30;;;5.20;99.90;;;;;;4890046;29;20469;-79
2023/01/11 08:22:38;;;;;;;1.70;1.40;;;5.30;99.90;;;;;;4877081;29;20851;-78
2023/01/11 08:25:06;;;;;;;2.00;1.07;;;5.30;99.90;;;;;;4880894;29;20434;-79
2023/01/11 08:27:32;;;;;;;3.47;1.20;;;5.30;99.90;;;;;;4879820;29;20454;-79
2023/01/11 08:29:59;;;;;;;1.67;1.00;;;5.30;99.90;;;;;;4887047;29;20519;-81
2023/01/11 08:32:28;;;;;;;1.33;1.23;;;5.40;99.90;;;;;;4880492;29;20526;-79
2023/01/11 08:34:56;;;;;;;1.47;1.13;;;5.40;99.90;;;;;;4885604;29;20814;-79
2023/01/11 08:37:23;;;;;;;1.70;1.20;;;5.50;99.90;;;;;;4905855;29;21040;-80
2023/01/11 08:39:50;;;;;;;1.20;1.10;;;5.60;99.90;;;;;;4908196;29;20450;-81
2023/01/11 08:42:17;;;;;;;1.10;1.00;;;5.70;99.90;;;;;;4909109;29;20464;-81
2023/01/11 08:44:43;;;;;;;1.10;1.00;;;5.80;99.90;;;;;;4908913;29;20485;-79
2023/01/11 08:47:10;;;;;;;1.10;0.97;;;5.90;99.90;;;;;;4900380;29;21255;-80
2023/01/11 08:49:37;;;;;;;2.80;1.03;;;6.00;99.90;;;;;;4907646;29;20554;-79
2023/01/11 08:52:05;;;;;;;1.20;1.00;;;6.00;99.90;;;;;;4910420;29;20533;-80
2023/01/11 08:54:32;;;;;;;3.03;1.13;;;6.10;99.90;;;;;;4909725;29;20456;-85
2023/01/11 08:56:59;;;;;;;1.57;1.47;;;6.30;99.90;;;;;;4910776;29;20520;-82
2023/01/11 08:59:25;;;;;;;2.00;1.27;;;6.10;99.90;;;;;;4913538;29;20466;-80
2023/01/11 09:01:52;;;;;;;1.53;1.40;;;6.20;99.90;;;;;;4903807;29;20492;-80
2023/01/11 09:04:19;;;;;;;2.90;1.50;;;6.30;99.90;;;;;;4902423;29;20461;-79
2023/01/11 09:06:46;;;;;;;1.40;1.20;;;6.50;99.90;;;;;;4906699;29;20434;-79
2023/01/11 09:09:14;;;;;;;2.20;1.87;;;6.40;99.90;;;;;;4908340;29;20493;-82
2023/01/11 09:11:57;;;;;;;2.70;1.27;;;6.50;99.90;;;;;;4909201;29;20461;-79
2023/01/11 09:14:26;;;;;;;2.83;1.40;;;6.60;99.90;;;;;;4909073;29;20468;-79
2023/01/11 09:16:54;;;;;;;2.70;1.40;;;6.80;99.90;;;;;;4904385;29;20503;-80
2023/01/11 09:19:21;;;;;;;1.50;1.10;;;6.90;99.90;;;;;;4898777;29;20549;-79
2023/01/11 09:21:48;;;;;;;2.80;1.30;;;7.00;99.90;;;;;;4900015;29;20969;-79
2023/01/11 09:24:17;;;;;;;2.00;1.37;;;7.30;99.90;;;;;;4897368;29;20458;-81
2023/01/11 09:26:44;;;;;;;2.50;1.47;;;7.30;99.90;;;;;;4897769;29;20790;-78
2023/01/11 09:29:11;;;;;;;1.30;1.20;;;7.30;99.90;;;;;;4898425;29;20557;-78
2023/01/11 09:31:38;;;;;;;4.03;2.27;;;7.40;99.90;;;;;;4898382;29;20653;-79
2023/01/11 09:34:05;;;;;;;1.27;1.07;;;7.50;99.90;;;;;;4899190;29;20444;-79
2023/01/11 09:36:34;;;;;;;1.20;1.10;;;7.60;99.90;;;;;;4899921;29;20520;-79
2023/01/11 09:39:06;;;;;;;2.53;1.20;;;7.50;99.90;;;;;;4898422;29;21006;-79
2023/01/11 09:42:00;;;;;;;1.53;1.33;;;7.60;99.90;;;;;;4901239;29;20476;-81
2023/01/11 09:44:28;;;;;;;4.27;1.00;;;7.60;99.90;;;;;;4910197;29;20727;-81
2023/01/11 09:47:03;;;;;;;1.40;1.10;;;7.70;99.90;;;;;;4907289;29;20788;-80
2023/01/11 09:49:39;;;;;;;1.40;1.30;;;7.70;99.90;;;;;;4900626;29;20911;-79
2023/01/11 09:52:20;;;;;;;1.60;1.20;;;7.60;99.90;;;;;;4899276;29;20461;-79
2023/01/11 09:54:47;;;;;;;2.77;1.50;;;7.60;99.90;;;;;;4898557;29;20912;-79
2023/01/11 09:57:25;;;;;;;1.70;1.10;;;7.60;99.90;;;;;;4896291;29;20600;-81
2023/01/11 10:00:03;;;;;;;1.50;1.40;;;8.10;99.90;;;;;;4896203;29;20568;-80
2023/01/11 10:02:41;;;;;;;4.00;1.10;;;8.30;99.90;;;;;;4895679;29;20449;-78
2023/01/11 10:05:33;;;;;;;2.40;1.00;;;8.40;99.90;;;;;;4896994;29;20466;-78
2023/01/11 10:08:19;;;;;;;1.40;1.07;;;8.50;99.90;;;;;;4898008;29;20486;-79
2023/01/11 10:10:59;;;;;;;1.23;1.13;;;8.60;99.90;;;;;;4898027;29;20564;-79
2023/01/11 10:13:43;;;;;;;1.73;1.07;;;8.60;99.90;;;;;;4896407;29;20635;-78
2023/01/11 10:16:21;;;;;;;2.00;1.90;;;8.60;99.90;;;;;;4897911;29;20453;-79
2023/01/11 10:19:01;;;;;;;1.60;1.30;;;8.80;99.90;;;;;;4897709;29;20881;-78
2023/01/11 10:21:35;;;;;;;1.73;1.00;;;8.70;99.90;;;;;;4897769;29;21005;-78
2023/01/11 10:24:06;;;;;;;1.53;1.20;;;9.10;99.90;;;;;;4897766;29;20887;-78
2023/01/11 10:26:38;;;;;;;1.40;1.20;;;9.30;99.90;;;;;;4898086;29;20449;-78
2023/01/11 10:29:37;;;;;;;1.73;1.37;;;9.50;99.90;;;;;;4897902;29;20962;-78
2023/01/11 10:32:30;;;;;;;1.47;1.10;;;9.30;99.90;;;;;;4896693;29;20540;-79
2023/01/11 10:35:23;;;;;;;2.03;1.50;;;9.40;99.90;;;;;;4899261;29;20456;-79
2023/01/11 10:38:06;;;;;;;2.93;1.30;;;9.60;99.90;;;;;;4899201;29;20485;-78
2023/01/11 10:41:01;;;;;;;1.20;1.07;;;9.60;99.90;;;;;;4900259;29;20476;-79
2023/01/11 10:43:30;;;;;;;1.53;1.20;;;9.60;99.90;;;;;;4899698;29;20480;-79
2023/01/11 10:46:01;;;;;;;2.70;1.27;;;9.80;99.90;;;;;;4899933;29;20548;-79
2023/01/11 10:48:32;;;;;;;1.73;1.33;;;10.10;99.90;;;;;;4898673;29;20549;-78
2023/01/11 10:51:05;;;;;;;1.60;1.50;;;10.20;99.90;;;;;;4901572;29;20493;-79
2023/01/11 10:53:37;;;;;;;1.70;1.10;;;10.20;99.90;;;;;;4900211;29;20509;-78
2023/01/11 10:56:15;;;;;;;1.47;1.10;;;10.30;99.90;;;;;;4899488;29;20471;-78
2023/01/11 10:59:03;;;;;;;3.97;1.50;;;10.10;99.90;;;;;;4901172;29;20488;-79
2023/01/11 11:01:47;;;;;;;2.47;1.30;;;10.20;99.90;;;;;;4899880;29;20546;-79
2023/01/11 11:04:32;;;;;;;5.00;1.73;;;10.50;99.90;;;;;;4899507;29;20465;-78
2023/01/11 11:07:05;;;;;;;1.40;1.10;;;10.30;99.90;;;;;;4900512;29;20450;-78
2023/01/11 11:09:43;;;;;;;1.60;1.40;;;10.00;99.90;;;;;;4899838;29;20472;-78
2023/01/11 11:12:16;;;;;;;1.80;1.30;;;10.20;99.90;;;;;;4900592;29;20461;-79
2023/01/11 11:14:48;;;;;;;1.30;1.07;;;10.50;99.90;;;;;;4901095;29;20529;-79
2023/01/11 11:17:24;;;;;;;1.50;1.20;;;10.70;99.90;;;;;;4900043;29;20616;-80
2023/01/11 11:19:51;;;;;;;2.07;1.30;;;10.60;99.90;;;;;;4900003;29;20461;-78
2023/01/11 11:22:19;;;;;;;2.10;1.33;;;10.30;99.90;;;;;;4898670;29;20806;-79
2023/01/11 11:24:50;;;;;;;3.53;1.47;;;10.70;99.90;;;;;;4899834;29;20489;-79
2023/01/11 11:27:22;;;;;;;1.23;1.10;;;10.60;99.90;;;;;;4899308;29;20473;-78
2023/01/11 11:29:51;;;;;;;1.60;1.40;;;10.90;99.90;;;;;;4897798;29;20716;-78
2023/01/11 11:32:27;;;;;;;1.77;1.20;;;10.90;99.90;;;;;;4899019;29;20452;-78
2023/01/11 11:34:54;;;;;;;2.23;1.40;;;11.00;99.90;;;;;;4900366;29;20464;-78
2023/01/11 11:37:27;;;;;;;1.60;1.50;;;10.00;99.90;;;;;;4899171;29;20489;-79
2023/01/11 11:39:55;;;;;;;1.37;1.27;;;10.00;99.90;;;;;;4899061;29;20473;-80
2023/01/11 11:42:23;;;;;;;1.77;1.50;;;10.00;99.90;;;;;;4899574;29;20466;-79
2023/01/11 11:45:15;;;;;;;3.33;1.87;;;10.40;99.90;;;;;;4899188;29;20973;-79
2023/01/11 11:47:59;;;;;;;3.30;1.60;;;10.70;99.90;;;;;;4899246;29;20544;-79
2023/01/11 11:50:27;;;;;;;1.57;1.43;;;11.00;99.90;;;;;;4900941;29;20473;-79
2023/01/11 11:53:01;;;;;;;4.23;1.40;;;11.00;99.90;;;;;;4899467;29;20818;-79
2023/01/11 11:55:30;;;;;;;3.97;1.83;;;10.60;99.90;;;;;;4903877;29;20464;-78
2023/01/11 11:57:59;;;;;;;1.67;1.27;;;10.80;99.90;;;;;;4905670;29;20493;-78
2023/01/11 12:00:29;;;;;;;2.07;1.10;;;10.80;99.90;;;;;;4905491;29;20520;-79
2023/01/11 12:03:01;;;;;;;3.53;1.53;;;10.80;99.90;;;;;;4905485;29;20478;-79
2023/01/11 12:05:28;;;;;;;1.30;0.90;;;10.70;99.90;;;;;;4899965;29;20496;-79
2023/01/11 12:07:56;;;;;;;1.20;1.10;;;10.60;99.90;;;;;;4900568;29;20458;-79
2023/01/11 12:10:25;;;;;;;5.77;1.43;;;10.60;99.90;;;;;;4900020;29;20462;-79
2023/01/11 12:12:55;;;;;;;1.67;1.03;;;10.60;99.90;;;;;;4898822;29;20536;-78
2023/01/11 12:15:24;;;;;;;2.70;1.20;;;10.60;99.90;;;;;;4899909;29;20457;-79
2023/01/11 12:17:52;;;;;;;1.50;1.20;;;10.60;99.90;;;;;;4899441;29;20485;-79
2023/01/11 12:20:32;;;;;;;1.03;0.93;;;10.70;99.90;;;;;;4900997;29;20441;-79
2023/01/11 12:23:15;;;;;;;2.27;0.90;;;10.70;99.90;;;;;;4899172;29;20889;-79
2023/01/11 12:25:59;;;;;;;5.47;1.13;;;10.80;99.90;;;;;;4899554;29;20465;-79
2023/01/11 12:28:39;;;;;;;1.60;1.10;;;10.80;99.90;;;;;;4899166;29;20521;-79
2023/01/11 12:31:14;;;;;;;6.80;1.40;;;10.80;99.90;;;;;;4880797;29;20471;-79
2023/01/11 12:33:49;;;;;;;2.60;1.63;;;10.80;99.90;;;;;;4880516;29;20549;-78
2023/01/11 12:36:23;;;;;;;1.73;1.23;;;10.90;99.90;;;;;;4880750;29;20454;-78
2023/01/11 12:39:01;;;;;;;2.70;1.30;;;10.80;99.90;;;;;;4881089;29;20597;-79
2023/01/11 12:42:11;;;;;;;1.77;1.30;;;10.70;99.90;;;;;;4881406;29;20462;-79
2023/01/11 12:44:57;;;;;;;1.10;0.90;;;10.70;99.90;;;;;;4881761;29;20466;-79
2023/01/11 12:47:46;;;;;;;1.97;0.90;;;10.70;99.90;;;;;;4898763;29;20470;-79
2023/01/11 12:50:20;;;;;;;2.30;1.00;;;10.70;99.90;;;;;;4903840;29;20509;-79
2023/01/11 12:53:30;;;;;;;1.63;1.10;;;10.70;99.90;;;;;;4905804;29;20504;-78
2023/01/11 12:56:25;;;;;;;3.40;1.20;;;10.70;99.90;;;;;;4868680;29;20519;-79
2023/01/11 12:58:57;;;;;;;1.10;0.90;;;10.70;99.90;;;;;;4897487;29;20498;-80
2023/01/11 13:01:37;;;;;;;1.07;0.97;;;10.70;99.90;;;;;;4903978;29;20493;-80
2023/01/11 13:04:40;;;;;;;1.40;1.20;;;10.70;99.90;;;;;;4903392;29;20489;-80
2023/01/11 13:07:14;;;;;;;2.83;1.90;;;10.80;99.90;;;;;;4913396;28;21285;-76
2023/01/11 13:09:55;;;;;;;1.20;1.10;;;10.70;99.90;;;;;;4914995;28;20454;-83
2023/01/11 13:12:29;;;;;;;2.17;1.53;;;10.80;99.90;;;;;;4922222;28;20461;-82
2023/01/11 13:15:08;;;;;;;3.53;1.30;;;10.80;99.90;;;;;;4922132;28;20436;-82
2023/01/11 13:28:02;;;;;;;1.77;1.10;;;10.80;99.90;;;;;;5836956;23;20513;-78
2023/01/11 13:30:34;;;;;;;2.30;1.43;;;11.90;99.90;;;;;;4906471;29;20446;-82
2023/01/11 13:35:57;;;;;;;1.10;0.90;;;13.00;99.90;;;;;;5123613;27;20542;-92
2023/01/11 13:38:35;;;;;;;1.93;1.50;;;11.10;99.90;;;;;;5134483;28;20439;-83
2023/01/11 13:41:12;;;;;;;0.93;0.80;;;11.00;99.90;;;;;;5136558;28;20435;-87
2023/01/11 13:43:44;;;;;;;1.40;0.80;;;11.10;99.90;;;;;;5129008;28;20471;-91
2023/01/11 13:46:19;;;;;;;1.30;1.00;;;11.10;99.90;;;;;;5114510;28;21014;-92
2023/01/11 13:48:52;;;;;;;1.33;1.00;;;11.10;99.90;;;;;;5124525;28;20443;-95
2023/01/11 13:51:26;;;;;;;0.80;0.70;;;11.10;99.90;;;;;;5136276;28;20444;-82
2023/01/11 13:56:28;;;;;;;1.63;1.10;;;11.10;99.90;;;;;;5120523;28;20468;-93
2023/01/11 13:59:01;;;;;;;1.10;0.73;;;11.20;99.90;;;;;;5118057;28;20460;-93
2023/01/11 14:01:42;;;;;;;1.57;0.80;;;11.20;99.90;;;;;;5109339;28;20969;-82